Terminal Aerodrome Forecast
Issued by NWS

Home | Current Version | Previous Version | Graphics & Text | Print | Product List | Glossary On
Versions: 1 2 3 4 5 6 7 8 9 10 11 12 13 14
000
FTUS43 KBIS 140500
TAFMOT
TAF
KMOT 140524Z 1406/1506 28010KT P6SM SCT030 BKN070
      TEMPO 1407/1410 BKN025
     FM141900 31007KT P6SM SCT080
     FM150100 VRB04KT P6SM SKC=

USA.gov is the U.S. government's official web portal to all federal, state and local government web resources and services.